sensor_id;sensor_type;location;lat;lon;timestamp;temperature;humidity
9881;DHT22;4979;51.014;6.678;2024-03-06T00:02:05;8.10;99.90
9881;DHT22;4979;51.014;6.678;2024-03-06T00:04:31;8.10;99.90
9881;DHT22;4979;51.014;6.678;2024-03-06T00:06:57;8.10;99.90
9881;DHT22;4979;51.014;6.678;2024-03-06T00:09:23;8.10;99.90
9881;DHT22;4979;51.014;6.678;2024-03-06T00:11:49;8.10;99.90
9881;DHT22;4979;51.014;6.678;2024-03-06T00:14:18;8.10;99.90
9881;DHT22;4979;51.014;6.678;2024-03-06T00:16:44;8.10;99.90
9881;DHT22;4979;51.014;6.678;2024-03-06T00:19:09;8.00;99.90
9881;DHT22;4979;51.014;6.678;2024-03-06T00:21:35;8.00;99.90
9881;DHT22;4979;51.014;6.678;2024-03-06T00:24:02;7.90;99.90
9881;DHT22;4979;51.014;6.678;2024-03-06T00:26:29;7.90;99.90
9881;DHT22;4979;51.014;6.678;2024-03-06T00:28:54;7.80;99.90
9881;DHT22;4979;51.014;6.678;2024-03-06T00:31:20;7.80;99.90
9881;DHT22;4979;51.014;6.678;2024-03-06T00:33:45;7.70;99.90
9881;DHT22;4979;51.014;6.678;2024-03-06T00:36:11;7.70;99.90
9881;DHT22;4979;51.014;6.678;2024-03-06T00:38:37;7.60;99.90
9881;DHT22;4979;51.014;6.678;2024-03-06T00:43:29;7.70;99.90
9881;DHT22;4979;51.014;6.678;2024-03-06T00:45:54;7.50;99.90
9881;DHT22;4979;51.014;6.678;2024-03-06T00:48:20;7.50;99.90
9881;DHT22;4979;51.014;6.678;2024-03-06T00:53:12;7.60;99.90
9881;DHT22;4979;51.014;6.678;2024-03-06T00:58:04;7.60;99.90
9881;DHT22;4979;51.014;6.678;2024-03-06T01:00:31;7.60;99.90
9881;DHT22;4979;51.014;6.678;2024-03-06T01:02:57;7.70;99.90
9881;DHT22;4979;51.014;6.678;2024-03-06T01:05:23;7.70;99.90
9881;DHT22;4979;51.014;6.678;2024-03-06T01:07:48;7.70;99.90
9881;DHT22;4979;51.014;6.678;2024-03-06T01:10:14;7.60;99.90
9881;DHT22;4979;51.014;6.678;2024-03-06T01:12:39;7.70;99.90
9881;DHT22;4979;51.014;6.678;2024-03-06T01:15:05;7.70;99.90
9881;DHT22;4979;51.014;6.678;2024-03-06T01:17:33;7.70;99.90
9881;DHT22;4979;51.014;6.678;2024-03-06T01:19:59;7.60;99.90
9881;DHT22;4979;51.014;6.678;2024-03-06T01:22:25;7.70;99.90
9881;DHT22;4979;51.014;6.678;2024-03-06T01:27:17;7.60;99.90
9881;DHT22;4979;51.014;6.678;2024-03-06T01:29:42;7.60;99.90
9881;DHT22;4979;51.014;6.678;2024-03-06T01:32:08;7.50;99.90
9881;DHT22;4979;51.014;6.678;2024-03-06T01:34:35;7.50;99.90
9881;DHT22;4979;51.014;6.678;2024-03-06T01:37:01;7.40;99.90
9881;DHT22;4979;51.014;6.678;2024-03-06T01:39:26;7.40;99.90
9881;DHT22;4979;51.014;6.678;2024-03-06T01:41:52;7.50;99.90
9881;DHT22;4979;51.014;6.678;2024-03-06T01:44:18;7.50;99.90
9881;DHT22;4979;51.014;6.678;2024-03-06T01:46:44;7.60;99.90
9881;DHT22;4979;51.014;6.678;2024-03-06T01:49:11;7.40;99.90
9881;DHT22;4979;51.014;6.678;2024-03-06T01:51:38;7.40;99.90
9881;DHT22;4979;51.014;6.678;2024-03-06T01:54:03;7.40;99.90
9881;DHT22;4979;51.014;6.678;2024-03-06T01:56:37;7.30;99.90
9881;DHT22;4979;51.014;6.678;2024-03-06T01:59:04;7.30;99.90
9881;DHT22;4979;51.014;6.678;2024-03-06T02:01:31;7.40;99.90
9881;DHT22;4979;51.014;6.678;2024-03-06T02:03:58;7.40;99.90
9881;DHT22;4979;51.014;6.678;2024-03-06T02:06:25;7.40;99.90
9881;DHT22;4979;51.014;6.678;2024-03-06T02:08:51;7.40;99.90
9881;DHT22;4979;51.014;6.678;2024-03-06T02:11:17;7.40;99.90
9881;DHT22;4979;51.014;6.678;2024-03-06T02:13:43;7.40;99.90
9881;DHT22;4979;51.014;6.678;2024-03-06T02:16:09;7.20;99.90
9881;DHT22;4979;51.014;6.678;2024-03-06T02:18:35;7.10;99.90
9881;DHT22;4979;51.014;6.678;2024-03-06T02:21:02;7.10;99.90
9881;DHT22;4979;51.014;6.678;2024-03-06T02:23:28;7.00;99.90
9881;DHT22;4979;51.014;6.678;2024-03-06T02:25:53;7.00;99.90
9881;DHT22;4979;51.014;6.678;2024-03-06T02:28:19;6.80;99.90
9881;DHT22;4979;51.014;6.678;2024-03-06T02:30:44;6.90;99.90
9881;DHT22;4979;51.014;6.678;2024-03-06T02:33:10;6.80;99.90
9881;DHT22;4979;51.014;6.678;2024-03-06T02:35:36;6.90;99.90
9881;DHT22;4979;51.014;6.678;2024-03-06T02:38:04;6.80;99.90
9881;DHT22;4979;51.014;6.678;2024-03-06T02:40:33;6.80;99.90
9881;DHT22;4979;51.014;6.678;2024-03-06T02:42:58;6.80;99.90
9881;DHT22;4979;51.014;6.678;2024-03-06T02:45:24;6.80;99.90
9881;DHT22;4979;51.014;6.678;2024-03-06T02:47:49;6.70;99.90
9881;DHT22;4979;51.014;6.678;2024-03-06T02:50:15;6.60;99.90
9881;DHT22;4979;51.014;6.678;2024-03-06T02:52:41;6.60;99.90
9881;DHT22;4979;51.014;6.678;2024-03-06T02:55:07;6.40;99.90
9881;DHT22;4979;51.014;6.678;2024-03-06T02:57:32;6.20;99.90
9881;DHT22;4979;51.014;6.678;2024-03-06T02:59:59;6.30;99.90
9881;DHT22;4979;51.014;6.678;2024-03-06T03:02:24;6.20;99.90
9881;DHT22;4979;51.014;6.678;2024-03-06T03:07:18;6.20;99.90
9881;DHT22;4979;51.014;6.678;2024-03-06T03:09:45;6.20;99.90
9881;DHT22;4979;51.014;6.678;2024-03-06T03:12:10;6.20;99.90
9881;DHT22;4979;51.014;6.678;2024-03-06T03:17:02;6.20;99.90
9881;DHT22;4979;51.014;6.678;2024-03-06T03:19:29;6.30;99.90
9881;DHT22;4979;51.014;6.678;2024-03-06T03:21:54;6.30;99.90
9881;DHT22;4979;51.014;6.678;2024-03-06T03:24:20;6.40;99.90
9881;DHT22;4979;51.014;6.678;2024-03-06T03:26:47;6.30;99.90
9881;DHT22;4979;51.014;6.678;2024-03-06T03:29:12;6.30;99.90
9881;DHT22;4979;51.014;6.678;2024-03-06T03:31:38;6.30;99.90
9881;DHT22;4979;51.014;6.678;2024-03-06T03:34:05;6.30;99.90
9881;DHT22;4979;51.014;6.678;2024-03-06T03:36:30;6.30;99.90
9881;DHT22;4979;51.014;6.678;2024-03-06T03:38:56;6.20;99.90
9881;DHT22;4979;51.014;6.678;2024-03-06T03:41:22;6.30;99.90
9881;DHT22;4979;51.014;6.678;2024-03-06T03:43:47;6.30;99.90
9881;DHT22;4979;51.014;6.678;2024-03-06T03:46:14;6.30;99.90
9881;DHT22;4979;51.014;6.678;2024-03-06T03:48:40;6.40;99.90
9881;DHT22;4979;51.014;6.678;2024-03-06T03:51:06;6.40;99.90
9881;DHT22;4979;51.014;6.678;2024-03-06T03:53:33;6.30;99.90
9881;DHT22;4979;51.014;6.678;2024-03-06T03:55:59;6.40;99.90
9881;DHT22;4979;51.014;6.678;2024-03-06T03:58:24;6.50;99.90
9881;DHT22;4979;51.014;6.678;2024-03-06T04:00:50;6.50;99.90
9881;DHT22;4979;51.014;6.678;2024-03-06T04:03:19;6.50;99.90
9881;DHT22;4979;51.014;6.678;2024-03-06T04:05:46;6.50;99.90
9881;DHT22;4979;51.014;6.678;2024-03-06T04:08:12;6.50;99.90
9881;DHT22;4979;51.014;6.678;2024-03-06T04:10:38;6.50;99.90
9881;DHT22;4979;51.014;6.678;2024-03-06T04:13:04;6.60;99.90
9881;DHT22;4979;51.014;6.678;2024-03-06T04:15:29;6.50;99.90
9881;DHT22;4979;51.014;6.678;2024-03-06T04:17:55;6.50;99.90
9881;DHT22;4979;51.014;6.678;2024-03-06T04:20:20;6.40;99.90
9881;DHT22;4979;51.014;6.678;2024-03-06T04:22:46;6.40;99.90
9881;DHT22;4979;51.014;6.678;2024-03-06T04:25:13;6.30;99.90
9881;DHT22;4979;51.014;6.678;2024-03-06T04:27:39;6.30;99.90
9881;DHT22;4979;51.014;6.678;2024-03-06T04:30:05;6.30;99.90
9881;DHT22;4979;51.014;6.678;2024-03-06T04:32:31;6.30;99.90
9881;DHT22;4979;51.014;6.678;2024-03-06T04:34:56;6.30;99.90
9881;DHT22;4979;51.014;6.678;2024-03-06T04:37:22;6.30;99.90
9881;DHT22;4979;51.014;6.678;2024-03-06T04:39:48;6.30;99.90
9881;DHT22;4979;51.014;6.678;2024-03-06T04:42:13;6.20;99.90
9881;DHT22;4979;51.014;6.678;2024-03-06T04:44:39;6.30;99.90
9881;DHT22;4979;51.014;6.678;2024-03-06T04:49:34;6.40;99.90
9881;DHT22;4979;51.014;6.678;2024-03-06T04:52:00;6.60;99.90
9881;DHT22;4979;51.014;6.678;2024-03-06T04:54:26;6.60;99.90
9881;DHT22;4979;51.014;6.678;2024-03-06T04:56:52;6.50;99.90
9881;DHT22;4979;51.014;6.678;2024-03-06T04:59:17;6.60;99.90
9881;DHT22;4979;51.014;6.678;2024-03-06T05:01:43;6.60;99.90
9881;DHT22;4979;51.014;6.678;2024-03-06T05:04:09;6.60;99.90
9881;DHT22;4979;51.014;6.678;2024-03-06T05:06:36;6.70;99.90
9881;DHT22;4979;51.014;6.678;2024-03-06T05:09:02;6.60;99.90
9881;DHT22;4979;51.014;6.678;2024-03-06T05:11:28;6.60;99.90
9881;DHT22;4979;51.014;6.678;2024-03-06T05:13:55;6.70;99.90
9881;DHT22;4979;51.014;6.678;2024-03-06T05:16:20;6.70;99.90
9881;DHT22;4979;51.014;6.678;2024-03-06T05:18:48;6.70;99.90
9881;DHT22;4979;51.014;6.678;2024-03-06T05:21:15;6.60;99.90
9881;DHT22;4979;51.014;6.678;2024-03-06T05:23:41;6.60;99.90
9881;DHT22;4979;51.014;6.678;2024-03-06T05:28:33;6.60;99.90
9881;DHT22;4979;51.014;6.678;2024-03-06T05:30:59;6.60;99.90
9881;DHT22;4979;51.014;6.678;2024-03-06T05:35:54;6.60;99.90
9881;DHT22;4979;51.014;6.678;2024-03-06T05:38:19;6.70;99.90
9881;DHT22;4979;51.014;6.678;2024-03-06T05:43:13;6.70;99.90
9881;DHT22;4979;51.014;6.678;2024-03-06T05:45:38;6.70;99.90
9881;DHT22;4979;51.014;6.678;2024-03-06T05:48:04;6.70;99.90
9881;DHT22;4979;51.014;6.678;2024-03-06T05:52:57;6.60;99.90
9881;DHT22;4979;51.014;6.678;2024-03-06T05:55:23;6.60;99.90
9881;DHT22;4979;51.014;6.678;2024-03-06T05:57:48;6.60;99.90
9881;DHT22;4979;51.014;6.678;2024-03-06T06:00:15;6.60;99.90
9881;DHT22;4979;51.014;6.678;2024-03-06T06:02:43;6.60;99.90
9881;DHT22;4979;51.014;6.678;2024-03-06T06:05:10;6.60;99.90
9881;DHT22;4979;51.014;6.678;2024-03-06T06:10:04;6.50;99.90
9881;DHT22;4979;51.014;6.678;2024-03-06T06:12:33;6.60;99.90
9881;DHT22;4979;51.014;6.678;2024-03-06T06:17:25;6.60;99.90
9881;DHT22;4979;51.014;6.678;2024-03-06T06:19:51;6.60;99.90
9881;DHT22;4979;51.014;6.678;2024-03-06T06:24:42;6.60;99.90
9881;DHT22;4979;51.014;6.678;2024-03-06T06:27:08;6.70;99.90
9881;DHT22;4979;51.014;6.678;2024-03-06T06:29:33;6.70;99.90
9881;DHT22;4979;51.014;6.678;2024-03-06T06:31:59;6.70;99.90
9881;DHT22;4979;51.014;6.678;2024-03-06T06:34:25;6.80;99.90
9881;DHT22;4979;51.014;6.678;2024-03-06T06:36:53;6.80;99.90
9881;DHT22;4979;51.014;6.678;2024-03-06T06:39:19;6.80;99.90
9881;DHT22;4979;51.014;6.678;2024-03-06T06:41:44;6.80;99.90
9881;DHT22;4979;51.014;6.678;2024-03-06T06:44:10;6.80;99.90
9881;DHT22;4979;51.014;6.678;2024-03-06T06:46:35;6.90;99.90
9881;DHT22;4979;51.014;6.678;2024-03-06T06:49:01;6.90;99.90
9881;DHT22;4979;51.014;6.678;2024-03-06T06:51:26;7.00;99.90
9881;DHT22;4979;51.014;6.678;2024-03-06T06:53:52;7.00;99.90
9881;DHT22;4979;51.014;6.678;2024-03-06T06:56:17;7.00;99.90
9881;DHT22;4979;51.014;6.678;2024-03-06T06:58:43;7.00;99.90
9881;DHT22;4979;51.014;6.678;2024-03-06T07:01:09;7.10;99.90
9881;DHT22;4979;51.014;6.678;2024-03-06T07:03:35;7.10;99.90
9881;DHT22;4979;51.014;6.678;2024-03-06T07:06:01;7.20;99.90
9881;DHT22;4979;51.014;6.678;2024-03-06T07:08:28;7.20;99.90
9881;DHT22;4979;51.014;6.678;2024-03-06T07:10:54;7.20;99.90
9881;DHT22;4979;51.014;6.678;2024-03-06T07:13:20;7.20;99.90
9881;DHT22;4979;51.014;6.678;2024-03-06T07:15:45;7.10;99.90
9881;DHT22;4979;51.014;6.678;2024-03-06T07:18:11;7.30;99.90
9881;DHT22;4979;51.014;6.678;2024-03-06T07:20:39;7.30;99.90
9881;DHT22;4979;51.014;6.678;2024-03-06T07:23:04;7.50;99.90
9881;DHT22;4979;51.014;6.678;2024-03-06T07:25:30;7.60;99.90
9881;DHT22;4979;51.014;6.678;2024-03-06T07:27:55;7.70;99.90
9881;DHT22;4979;51.014;6.678;2024-03-06T07:30:21;7.80;99.90
9881;DHT22;4979;51.014;6.678;2024-03-06T07:32:47;7.90;99.90
9881;DHT22;4979;51.014;6.678;2024-03-06T07:35:13;7.90;99.90
9881;DHT22;4979;51.014;6.678;2024-03-06T07:37:39;7.90;99.90
9881;DHT22;4979;51.014;6.678;2024-03-06T07:40:06;8.20;99.90
9881;DHT22;4979;51.014;6.678;2024-03-06T07:42:32;8.20;99.90
9881;DHT22;4979;51.014;6.678;2024-03-06T07:44:58;8.30;99.90
9881;DHT22;4979;51.014;6.678;2024-03-06T07:47:24;8.40;99.90
9881;DHT22;4979;51.014;6.678;2024-03-06T07:49:50;8.60;99.90
9881;DHT22;4979;51.014;6.678;2024-03-06T07:52:16;8.70;99.90
9881;DHT22;4979;51.014;6.678;2024-03-06T07:57:07;8.50;99.90
9881;DHT22;4979;51.014;6.678;2024-03-06T07:59:35;8.40;99.90
9881;DHT22;4979;51.014;6.678;2024-03-06T08:02:00;8.30;99.90
9881;DHT22;4979;51.014;6.678;2024-03-06T08:04:26;8.40;99.90
9881;DHT22;4979;51.014;6.678;2024-03-06T08:06:52;8.40;99.90
9881;DHT22;4979;51.014;6.678;2024-03-06T08:09:18;8.40;99.90
9881;DHT22;4979;51.014;6.678;2024-03-06T08:11:44;8.60;99.90
9881;DHT22;4979;51.014;6.678;2024-03-06T08:14:10;8.50;99.90
9881;DHT22;4979;51.014;6.678;2024-03-06T08:19:02;8.60;99.90
9881;DHT22;4979;51.014;6.678;2024-03-06T08:21:28;8.80;99.90
9881;DHT22;4979;51.014;6.678;2024-03-06T08:23:53;8.80;99.90
9881;DHT22;4979;51.014;6.678;2024-03-06T08:26:19;8.90;99.90
9881;DHT22;4979;51.014;6.678;2024-03-06T08:36:03;8.90;99.90
9881;DHT22;4979;51.014;6.678;2024-03-06T08:40:55;9.10;99.90
9881;DHT22;4979;51.014;6.678;2024-03-06T08:43:20;9.20;99.90
9881;DHT22;4979;51.014;6.678;2024-03-06T08:45:46;9.40;99.90
9881;DHT22;4979;51.014;6.678;2024-03-06T08:48:11;9.80;99.90
9881;DHT22;4979;51.014;6.678;2024-03-06T08:50:38;9.90;99.90
9881;DHT22;4979;51.014;6.678;2024-03-06T08:53:04;9.90;99.90
9881;DHT22;4979;51.014;6.678;2024-03-06T08:55:29;9.90;99.90
9881;DHT22;4979;51.014;6.678;2024-03-06T08:57:55;10.00;99.90
9881;DHT22;4979;51.014;6.678;2024-03-06T09:00:20;10.20;99.90
9881;DHT22;4979;51.014;6.678;2024-03-06T09:02:46;10.10;99.90
9881;DHT22;4979;51.014;6.678;2024-03-06T09:05:12;10.20;99.90
9881;DHT22;4979;51.014;6.678;2024-03-06T09:07:38;10.30;99.90
9881;DHT22;4979;51.014;6.678;2024-03-06T09:10:06;10.30;99.90
9881;DHT22;4979;51.014;6.678;2024-03-06T09:12:32;10.30;99.90
9881;DHT22;4979;51.014;6.678;2024-03-06T09:14:57;10.10;99.90
9881;DHT22;4979;51.014;6.678;2024-03-06T09:17:25;10.40;99.90
9881;DHT22;4979;51.014;6.678;2024-03-06T09:19:51;10.40;99.90
9881;DHT22;4979;51.014;6.678;2024-03-06T09:22:17;10.50;99.90
9881;DHT22;4979;51.014;6.678;2024-03-06T09:24:43;10.60;99.90
9881;DHT22;4979;51.014;6.678;2024-03-06T09:27:08;10.70;99.90
9881;DHT22;4979;51.014;6.678;2024-03-06T09:29:34;10.70;99.90
9881;DHT22;4979;51.014;6.678;2024-03-06T09:31:59;10.70;99.90
9881;DHT22;4979;51.014;6.678;2024-03-06T09:34:25;10.70;99.90
9881;DHT22;4979;51.014;6.678;2024-03-06T09:36:51;10.70;99.90
9881;DHT22;4979;51.014;6.678;2024-03-06T09:39:18;10.90;99.90
9881;DHT22;4979;51.014;6.678;2024-03-06T09:41:49;10.90;99.90
9881;DHT22;4979;51.014;6.678;2024-03-06T09:44:16;11.10;99.90
9881;DHT22;4979;51.014;6.678;2024-03-06T09:46:43;11.20;99.90
9881;DHT22;4979;51.014;6.678;2024-03-06T09:49:13;11.30;99.90
9881;DHT22;4979;51.014;6.678;2024-03-06T09:51:46;11.40;99.90
9881;DHT22;4979;51.014;6.678;2024-03-06T09:54:14;11.40;99.90
9881;DHT22;4979;51.014;6.678;2024-03-06T09:56:49;11.50;99.90
9881;DHT22;4979;51.014;6.678;2024-03-06T09:59:15;11.70;99.90
9881;DHT22;4979;51.014;6.678;2024-03-06T10:01:53;11.70;99.90
9881;DHT22;4979;51.014;6.678;2024-03-06T10:04:27;11.80;99.90
9881;DHT22;4979;51.014;6.678;2024-03-06T10:06:54;11.90;99.90
9881;DHT22;4979;51.014;6.678;2024-03-06T10:09:23;11.90;99.90
9881;DHT22;4979;51.014;6.678;2024-03-06T10:11:49;12.00;99.90
9881;DHT22;4979;51.014;6.678;2024-03-06T10:14:18;12.00;99.90
9881;DHT22;4979;51.014;6.678;2024-03-06T10:16:56;11.90;99.90
9881;DHT22;4979;51.014;6.678;2024-03-06T10:19:23;11.90;99.90
9881;DHT22;4979;51.014;6.678;2024-03-06T10:21:50;11.80;99.90
9881;DHT22;4979;51.014;6.678;2024-03-06T10:24:20;12.00;99.90
9881;DHT22;4979;51.014;6.678;2024-03-06T10:26:46;12.30;99.90
9881;DHT22;4979;51.014;6.678;2024-03-06T10:29:19;12.40;99.90
9881;DHT22;4979;51.014;6.678;2024-03-06T10:31:55;12.10;99.90
9881;DHT22;4979;51.014;6.678;2024-03-06T10:34:23;12.10;99.90
9881;DHT22;4979;51.014;6.678;2024-03-06T10:37:00;12.30;99.90
9881;DHT22;4979;51.014;6.678;2024-03-06T10:39:27;12.60;99.90
9881;DHT22;4979;51.014;6.678;2024-03-06T10:41:56;12.50;99.90
9881;DHT22;4979;51.014;6.678;2024-03-06T10:44:26;12.20;99.90
9881;DHT22;4979;51.014;6.678;2024-03-06T10:47:02;12.10;99.90
9881;DHT22;4979;51.014;6.678;2024-03-06T10:49:29;12.10;99.90
9881;DHT22;4979;51.014;6.678;2024-03-06T10:52:02;12.10;99.90
9881;DHT22;4979;51.014;6.678;2024-03-06T10:54:31;12.20;99.90
9881;DHT22;4979;51.014;6.678;2024-03-06T10:56:58;12.60;99.90
9881;DHT22;4979;51.014;6.678;2024-03-06T10:59:28;12.90;99.90
9881;DHT22;4979;51.014;6.678;2024-03-06T11:01:55;12.60;99.90
9881;DHT22;4979;51.014;6.678;2024-03-06T11:04:31;12.20;99.90
9881;DHT22;4979;51.014;6.678;2024-03-06T11:07:02;12.20;99.90
9881;DHT22;4979;51.014;6.678;2024-03-06T11:09:37;12.50;99.90
9881;DHT22;4979;51.014;6.678;2024-03-06T11:12:06;12.60;99.90
9881;DHT22;4979;51.014;6.678;2024-03-06T11:14:32;12.80;99.90
9881;DHT22;4979;51.014;6.678;2024-03-06T11:17:07;12.90;99.90
9881;DHT22;4979;51.014;6.678;2024-03-06T11:28:17;13.40;99.90
9881;DHT22;4979;51.014;6.678;2024-03-06T11:31:00;13.50;99.90
9881;DHT22;4979;51.014;6.678;2024-03-06T11:33:43;13.70;99.90
9881;DHT22;4979;51.014;6.678;2024-03-06T11:36:16;13.50;99.90
9881;DHT22;4979;51.014;6.678;2024-03-06T11:38:51;13.40;99.90
9881;DHT22;4979;51.014;6.678;2024-03-06T11:41:22;13.80;99.90
9881;DHT22;4979;51.014;6.678;2024-03-06T11:43:51;13.90;99.90
9881;DHT22;4979;51.014;6.678;2024-03-06T11:46:19;14.00;99.90
9881;DHT22;4979;51.014;6.678;2024-03-06T11:48:54;14.20;99.90
9881;DHT22;4979;51.014;6.678;2024-03-06T11:51:21;13.80;99.90
9881;DHT22;4979;51.014;6.678;2024-03-06T11:53:49;13.30;99.90
9881;DHT22;4979;51.014;6.678;2024-03-06T11:56:17;13.10;99.90
9881;DHT22;4979;51.014;6.678;2024-03-06T11:58:43;13.60;99.90
9881;DHT22;4979;51.014;6.678;2024-03-06T12:01:09;13.70;99.90
9881;DHT22;4979;51.014;6.678;2024-03-06T12:03:34;13.30;99.90
9881;DHT22;4979;51.014;6.678;2024-03-06T12:06:00;13.30;99.90
9881;DHT22;4979;51.014;6.678;2024-03-06T12:08:27;13.50;99.90
9881;DHT22;4979;51.014;6.678;2024-03-06T12:10:52;13.60;99.90
9881;DHT22;4979;51.014;6.678;2024-03-06T12:13:20;13.60;99.90
9881;DHT22;4979;51.014;6.678;2024-03-06T12:20:42;13.00;99.90
9881;DHT22;4979;51.014;6.678;2024-03-06T12:23:19;12.70;99.90
9881;DHT22;4979;51.014;6.678;2024-03-06T12:25:46;12.60;99.90
9881;DHT22;4979;51.014;6.678;2024-03-06T12:28:12;12.60;99.90
9881;DHT22;4979;51.014;6.678;2024-03-06T12:30:42;12.60;99.90
9881;DHT22;4979;51.014;6.678;2024-03-06T12:33:16;12.50;99.90
9881;DHT22;4979;51.014;6.678;2024-03-06T12:35:42;12.40;99.90
9881;DHT22;4979;51.014;6.678;2024-03-06T12:38:17;12.40;99.90
9881;DHT22;4979;51.014;6.678;2024-03-06T12:40:42;12.40;99.90
9881;DHT22;4979;51.014;6.678;2024-03-06T12:43:09;12.50;99.90
9881;DHT22;4979;51.014;6.678;2024-03-06T12:48:01;12.40;99.90
9881;DHT22;4979;51.014;6.678;2024-03-06T12:52:52;12.60;99.90
9881;DHT22;4979;51.014;6.678;2024-03-06T12:57:45;12.40;99.90
9881;DHT22;4979;51.014;6.678;2024-03-06T13:00:11;12.50;99.90
9881;DHT22;4979;51.014;6.678;2024-03-06T13:02:42;12.50;99.90
9881;DHT22;4979;51.014;6.678;2024-03-06T13:05:09;12.40;99.90
9881;DHT22;4979;51.014;6.678;2024-03-06T13:07:35;12.40;99.90
9881;DHT22;4979;51.014;6.678;2024-03-06T13:10:02;12.30;99.90
9881;DHT22;4979;51.014;6.678;2024-03-06T13:12:28;12.20;99.90
9881;DHT22;4979;51.014;6.678;2024-03-06T13:19:46;12.30;99.90
9881;DHT22;4979;51.014;6.678;2024-03-06T13:22:12;12.40;99.90
9881;DHT22;4979;51.014;6.678;2024-03-06T13:27:04;12.20;99.90
9881;DHT22;4979;51.014;6.678;2024-03-06T13:31:55;12.10;99.90
9881;DHT22;4979;51.014;6.678;2024-03-06T13:36:47;12.10;99.90
9881;DHT22;4979;51.014;6.678;2024-03-06T13:39:12;12.10;99.90
9881;DHT22;4979;51.014;6.678;2024-03-06T13:44:06;12.10;99.90
9881;DHT22;4979;51.014;6.678;2024-03-06T13:46:33;12.10;99.90
9881;DHT22;4979;51.014;6.678;2024-03-06T13:48:58;12.10;99.90
9881;DHT22;4979;51.014;6.678;2024-03-06T13:53:50;12.20;99.90
9881;DHT22;4979;51.014;6.678;2024-03-06T13:58:41;12.00;99.90
9881;DHT22;4979;51.014;6.678;2024-03-06T14:01:07;12.10;99.90
9881;DHT22;4979;51.014;6.678;2024-03-06T14:05:59;12.30;99.90
9881;DHT22;4979;51.014;6.678;2024-03-06T14:08:26;12.20;99.90
9881;DHT22;4979;51.014;6.678;2024-03-06T14:10:52;12.10;99.90
9881;DHT22;4979;51.014;6.678;2024-03-06T14:13:17;11.80;99.90
9881;DHT22;4979;51.014;6.678;2024-03-06T14:15:43;12.00;99.90
9881;DHT22;4979;51.014;6.678;2024-03-06T14:20:35;12.50;99.90
9881;DHT22;4979;51.014;6.678;2024-03-06T14:23:01;12.70;99.90
9881;DHT22;4979;51.014;6.678;2024-03-06T14:25:26;12.70;99.90
9881;DHT22;4979;51.014;6.678;2024-03-06T14:27:52;12.80;99.90
9881;DHT22;4979;51.014;6.678;2024-03-06T14:30:18;12.70;99.90
9881;DHT22;4979;51.014;6.678;2024-03-06T14:32:45;12.80;99.90
9881;DHT22;4979;51.014;6.678;2024-03-06T14:35:10;12.90;99.90
9881;DHT22;4979;51.014;6.678;2024-03-06T14:37:36;12.90;99.90
9881;DHT22;4979;51.014;6.678;2024-03-06T14:47:26;12.90;99.90
9881;DHT22;4979;51.014;6.678;2024-03-06T14:49:52;12.90;99.90
9881;DHT22;4979;51.014;6.678;2024-03-06T14:54:45;13.10;99.90
9881;DHT22;4979;51.014;6.678;2024-03-06T14:57:13;13.00;99.90
9881;DHT22;4979;51.014;6.678;2024-03-06T14:59:38;12.90;99.90
9881;DHT22;4979;51.014;6.678;2024-03-06T15:04:30;12.90;99.90
9881;DHT22;4979;51.014;6.678;2024-03-06T15:06:55;12.90;99.90
9881;DHT22;4979;51.014;6.678;2024-03-06T15:11:51;12.90;99.90
9881;DHT22;4979;51.014;6.678;2024-03-06T15:16:44;12.80;99.90
9881;DHT22;4979;51.014;6.678;2024-03-06T15:19:10;12.90;99.90
9881;DHT22;4979;51.014;6.678;2024-03-06T15:31:19;12.60;99.90
9881;DHT22;4979;51.014;6.678;2024-03-06T15:33:45;12.70;99.90
9881;DHT22;4979;51.014;6.678;2024-03-06T15:36:13;12.60;99.90
9881;DHT22;4979;51.014;6.678;2024-03-06T15:41:05;12.70;99.90
9881;DHT22;4979;51.014;6.678;2024-03-06T15:46:00;12.60;99.90
9881;DHT22;4979;51.014;6.678;2024-03-06T15:53:20;12.50;99.90
9881;DHT22;4979;51.014;6.678;2024-03-06T15:58:11;12.40;99.90
9881;DHT22;4979;51.014;6.678;2024-03-06T16:00:37;12.30;99.90
9881;DHT22;4979;51.014;6.678;2024-03-06T16:03:03;12.30;99.90
9881;DHT22;4979;51.014;6.678;2024-03-06T16:07:59;12.30;99.90
9881;DHT22;4979;51.014;6.678;2024-03-06T16:10:26;12.40;99.90
9881;DHT22;4979;51.014;6.678;2024-03-06T16:12:51;12.20;99.90
9881;DHT22;4979;51.014;6.678;2024-03-06T16:15:17;11.30;99.90
9881;DHT22;4979;51.014;6.678;2024-03-06T16:22:36;11.90;99.90
9881;DHT22;4979;51.014;6.678;2024-03-06T16:25:02;11.90;99.90
9881;DHT22;4979;51.014;6.678;2024-03-06T16:29:54;11.90;99.90
9881;DHT22;4979;51.014;6.678;2024-03-06T16:32:20;11.90;99.90
9881;DHT22;4979;51.014;6.678;2024-03-06T16:34:46;11.80;99.90
9881;DHT22;4979;51.014;6.678;2024-03-06T16:39:37;11.70;99.90
9881;DHT22;4979;51.014;6.678;2024-03-06T16:42:03;11.70;99.90
9881;DHT22;4979;51.014;6.678;2024-03-06T16:46:57;11.70;99.90
9881;DHT22;4979;51.014;6.678;2024-03-06T16:51:49;11.60;99.90
9881;DHT22;4979;51.014;6.678;2024-03-06T16:54:14;11.50;99.90
9881;DHT22;4979;51.014;6.678;2024-03-06T16:56:42;11.50;99.90
9881;DHT22;4979;51.014;6.678;2024-03-06T16:59:08;11.40;99.90
9881;DHT22;4979;51.014;6.678;2024-03-06T17:01:34;11.40;99.90
9881;DHT22;4979;51.014;6.678;2024-03-06T17:03:59;11.30;99.90
9881;DHT22;4979;51.014;6.678;2024-03-06T17:06:25;11.20;99.90
9881;DHT22;4979;51.014;6.678;2024-03-06T17:13:42;11.10;99.90
9881;DHT22;4979;51.014;6.678;2024-03-06T17:16:09;11.00;99.90
9881;DHT22;4979;51.014;6.678;2024-03-06T17:18:36;11.00;99.90
9881;DHT22;4979;51.014;6.678;2024-03-06T17:21:02;11.00;99.90
9881;DHT22;4979;51.014;6.678;2024-03-06T17:25:55;10.80;99.90
9881;DHT22;4979;51.014;6.678;2024-03-06T17:28:21;10.80;99.90
9881;DHT22;4979;51.014;6.678;2024-03-06T17:33:13;10.80;99.90
9881;DHT22;4979;51.014;6.678;2024-03-06T17:35:42;10.70;99.90
9881;DHT22;4979;51.014;6.678;2024-03-06T17:38:08;10.70;99.90
9881;DHT22;4979;51.014;6.678;2024-03-06T17:40:35;10.70;99.90
9881;DHT22;4979;51.014;6.678;2024-03-06T17:45:27;10.70;99.90
9881;DHT22;4979;51.014;6.678;2024-03-06T17:47:53;10.60;99.90
9881;DHT22;4979;51.014;6.678;2024-03-06T17:50:19;10.60;99.90
9881;DHT22;4979;51.014;6.678;2024-03-06T17:52:45;10.60;99.90
9881;DHT22;4979;51.014;6.678;2024-03-06T17:55:11;10.50;99.90
9881;DHT22;4979;51.014;6.678;2024-03-06T17:57:36;10.50;99.90
9881;DHT22;4979;51.014;6.678;2024-03-06T18:00:02;10.50;99.90
9881;DHT22;4979;51.014;6.678;2024-03-06T18:02:34;10.50;99.90
9881;DHT22;4979;51.014;6.678;2024-03-06T18:04:59;10.40;99.90
9881;DHT22;4979;51.014;6.678;2024-03-06T18:07:25;10.40;99.90
9881;DHT22;4979;51.014;6.678;2024-03-06T18:09:53;10.40;99.90
9881;DHT22;4979;51.014;6.678;2024-03-06T18:17:12;10.30;99.90
9881;DHT22;4979;51.014;6.678;2024-03-06T18:22:08;10.30;99.90
9881;DHT22;4979;51.014;6.678;2024-03-06T18:24:37;10.30;99.90
9881;DHT22;4979;51.014;6.678;2024-03-06T18:29:30;10.30;99.90
9881;DHT22;4979;51.014;6.678;2024-03-06T18:31:56;10.20;99.90
9881;DHT22;4979;51.014;6.678;2024-03-06T18:34:22;10.20;99.90
9881;DHT22;4979;51.014;6.678;2024-03-06T18:39:14;10.20;99.90
9881;DHT22;4979;51.014;6.678;2024-03-06T18:41:40;10.20;99.90
9881;DHT22;4979;51.014;6.678;2024-03-06T18:44:06;10.20;99.90
9881;DHT22;4979;51.014;6.678;2024-03-06T18:46:38;10.20;99.90
9881;DHT22;4979;51.014;6.678;2024-03-06T18:51:29;10.10;99.90
9881;DHT22;4979;51.014;6.678;2024-03-06T18:56:21;10.10;99.90
9881;DHT22;4979;51.014;6.678;2024-03-06T18:58:47;10.10;99.90
9881;DHT22;4979;51.014;6.678;2024-03-06T19:01:14;10.10;99.90
9881;DHT22;4979;51.014;6.678;2024-03-06T19:03:39;10.10;99.90
9881;DHT22;4979;51.014;6.678;2024-03-06T19:06:06;10.10;99.90